Time;durP1;ratioP1;P1;durP2;ratioP2;P2;SDS_P1;SDS_P2;PMS_P1;PMS_P2;Temp;Humidity;BMP_temperature;BMP_pressure;BME280_temperature;BME280_humidity;BME280_pressure;Samples;Min_cycle;Max_cycle;Signal;HPM_P1;HPM_P2
2022/11/12 00:01:12;;;;;;;2.40;2.20;;;20.60;44.10;;;;;;5057625;28;20221;-68
2022/11/12 00:03:37;;;;;;;2.03;1.93;;;20.60;44.10;;;;;;5056682;28;20229;-67
2022/11/12 00:06:03;;;;;;;2.10;2.00;;;20.60;44.10;;;;;;5056344;28;20344;-67
2022/11/12 00:08:28;;;;;;;1.90;1.80;;;20.60;44.10;;;;;;5056407;28;20222;-67
2022/11/12 00:10:54;;;;;;;1.93;1.83;;;20.60;44.10;;;;;;5056716;28;20316;-68
2022/11/12 00:13:19;;;;;;;1.90;1.80;;;20.60;44.10;;;;;;5056445;28;20262;-68
2022/11/12 00:15:46;;;;;;;1.80;1.70;;;20.60;44.20;;;;;;5056283;28;20226;-67
2022/11/12 00:18:11;;;;;;;1.90;1.80;;;20.60;44.10;;;;;;5058529;28;20711;-67
2022/11/12 00:20:37;;;;;;;2.30;2.20;;;20.60;44.10;;;;;;5057829;28;20470;-68
2022/11/12 00:23:02;;;;;;;1.90;1.80;;;20.60;44.10;;;;;;5053017;28;20308;-67
2022/11/12 00:25:28;;;;;;;2.70;1.90;;;20.60;44.10;;;;;;5056099;28;20205;-67
2022/11/12 00:28:00;;;;;;;1.73;1.63;;;20.60;44.20;;;;;;5057073;28;20949;-67
2022/11/12 00:30:26;;;;;;;2.00;1.90;;;20.60;44.10;;;;;;5055575;28;20217;-68
2022/11/12 00:32:52;;;;;;;1.80;1.70;;;20.60;44.10;;;;;;5053682;28;20579;-68
2022/11/12 00:35:17;;;;;;;2.13;2.03;;;20.60;44.20;;;;;;5058081;28;20222;-68
2022/11/12 00:37:43;;;;;;;2.20;1.57;;;20.60;44.10;;;;;;5054807;28;20336;-67
2022/11/12 00:40:09;;;;;;;1.80;1.70;;;20.60;44.10;;;;;;5056982;28;20220;-68
2022/11/12 00:42:35;;;;;;;1.57;1.47;;;20.60;44.10;;;;;;5038576;28;20221;-67
2022/11/12 00:45:00;;;;;;;1.70;1.60;;;20.60;44.10;;;;;;5056037;28;20466;-67
2022/11/12 00:47:26;;;;;;;2.80;1.80;;;20.60;44.10;;;;;;5054501;28;20605;-68
2022/11/12 00:49:51;;;;;;;2.67;2.57;;;20.60;44.30;;;;;;5054782;28;20310;-68
2022/11/12 00:52:17;;;;;;;1.70;1.60;;;20.60;44.10;;;;;;5056181;28;20711;-67
2022/11/12 00:54:43;;;;;;;2.07;1.80;;;20.60;44.10;;;;;;5057311;28;20229;-68
2022/11/12 00:57:08;;;;;;;1.80;1.70;;;20.60;44.10;;;;;;5057150;28;20213;-68
2022/11/12 00:59:34;;;;;;;2.03;1.93;;;20.60;44.10;;;;;;5056615;28;21040;-67
2022/11/12 01:01:59;;;;;;;1.90;1.80;;;20.60;44.10;;;;;;5050123;28;20732;-67
2022/11/12 01:04:25;;;;;;;1.90;1.80;;;20.60;44.10;;;;;;5053207;28;20680;-67
2022/11/12 01:06:50;;;;;;;1.80;1.70;;;20.60;44.10;;;;;;5054639;28;20229;-67
2022/11/12 01:09:16;;;;;;;1.97;1.77;;;20.60;44.10;;;;;;5056236;28;20259;-67
2022/11/12 01:11:41;;;;;;;2.13;2.03;;;20.60;44.10;;;;;;5054264;28;20680;-68
2022/11/12 01:14:08;;;;;;;1.97;1.77;;;20.60;44.10;;;;;;5053010;28;20230;-68
2022/11/12 01:16:37;;;;;;;1.80;1.70;;;20.60;44.10;;;;;;5052861;28;20278;-67
2022/11/12 01:19:05;;;;;;;2.07;1.97;;;20.60;44.10;;;;;;5051779;28;20627;-68
2022/11/12 01:21:35;;;;;;;1.63;1.53;;;20.60;44.00;;;;;;5056021;28;20474;-67
2022/11/12 01:24:01;;;;;;;2.23;2.03;;;20.60;44.10;;;;;;5051941;28;20451;-68
2022/11/12 01:26:27;;;;;;;1.83;1.70;;;20.60;44.10;;;;;;5055826;28;20899;-68
2022/11/12 01:28:53;;;;;;;2.60;1.73;;;20.60;44.10;;;;;;5057351;28;20244;-67
2022/11/12 01:31:27;;;;;;;1.80;1.70;;;20.60;44.00;;;;;;5050058;28;20524;-68
2022/11/12 01:33:55;;;;;;;1.70;1.60;;;20.60;44.00;;;;;;5055400;28;21099;-68
2022/11/12 01:36:22;;;;;;;2.03;1.93;;;20.60;44.00;;;;;;5054556;28;20520;-68
2022/11/12 01:38:48;;;;;;;1.97;1.87;;;20.60;44.00;;;;;;5057472;28;20480;-68
2022/11/12 01:41:18;;;;;;;2.13;1.83;;;20.60;44.00;;;;;;5056354;28;20446;-69
2022/11/12 01:43:43;;;;;;;3.90;2.10;;;20.60;44.00;;;;;;5054421;28;20506;-69
2022/11/12 01:46:18;;;;;;;1.80;1.70;;;20.60;44.00;;;;;;5054292;28;20549;-68
2022/11/12 01:49:03;;;;;;;2.30;2.20;;;20.60;44.00;;;;;;5053134;28;20271;-69
2022/11/12 01:51:36;;;;;;;1.80;1.70;;;20.60;44.00;;;;;;5055145;28;20508;-67
2022/11/12 01:54:06;;;;;;;2.03;1.50;;;20.60;44.00;;;;;;5054233;28;20466;-68
2022/11/12 01:56:32;;;;;;;1.90;1.80;;;20.60;44.00;;;;;;5055874;28;20962;-69
2022/11/12 01:59:12;;;;;;;1.87;1.77;;;20.60;44.00;;;;;;5055492;28;20454;-68
2022/11/12 02:01:38;;;;;;;1.90;1.80;;;20.60;44.00;;;;;;5052747;28;20474;-68
2022/11/12 02:04:03;;;;;;;2.50;1.97;;;20.60;44.00;;;;;;5055192;28;20455;-69
2022/11/12 02:06:30;;;;;;;1.60;1.50;;;20.60;44.00;;;;;;5056031;28;20238;-68
2022/11/12 02:08:56;;;;;;;1.90;1.80;;;20.60;44.00;;;;;;5054907;28;20275;-69
2022/11/12 02:11:21;;;;;;;1.93;1.80;;;20.60;44.00;;;;;;5049236;28;20459;-68
2022/11/12 02:14:01;;;;;;;1.70;1.60;;;20.60;44.00;;;;;;5052074;28;20541;-68
2022/11/12 02:16:32;;;;;;;1.83;1.73;;;20.60;44.00;;;;;;5053531;28;20233;-68
2022/11/12 02:18:58;;;;;;;1.77;1.67;;;20.60;44.00;;;;;;5056199;28;20512;-68
2022/11/12 02:21:24;;;;;;;2.00;1.90;;;20.60;44.00;;;;;;5054506;28;20802;-68
2022/11/12 02:24:01;;;;;;;2.00;1.90;;;20.60;44.00;;;;;;5047828;28;20466;-68
2022/11/12 02:26:30;;;;;;;2.00;1.90;;;20.60;44.00;;;;;;5052619;28;20488;-68
2022/11/12 02:28:55;;;;;;;1.50;1.40;;;20.60;43.80;;;;;;5056299;28;20544;-68
2022/11/12 02:31:21;;;;;;;2.40;1.87;;;20.60;44.00;;;;;;5050023;28;20545;-68
2022/11/12 02:33:46;;;;;;;1.80;1.70;;;20.60;44.00;;;;;;5057349;28;20240;-68
2022/11/12 02:36:12;;;;;;;1.90;1.80;;;20.60;43.90;;;;;;5053536;28;20324;-68
2022/11/12 02:38:38;;;;;;;1.87;1.77;;;20.60;44.00;;;;;;5053284;28;20260;-68
2022/11/12 02:41:03;;;;;;;1.83;1.70;;;20.60;44.60;;;;;;5054299;28;20681;-68
2022/11/12 02:43:29;;;;;;;1.97;1.83;;;20.60;43.90;;;;;;5053004;28;20213;-68
2022/11/12 02:45:54;;;;;;;1.97;1.87;;;20.60;43.90;;;;;;5054549;28;20233;-68
2022/11/12 02:48:20;;;;;;;2.10;2.00;;;20.60;43.90;;;;;;5053439;28;20225;-68
2022/11/12 02:50:46;;;;;;;1.60;1.50;;;20.60;43.90;;;;;;5051691;28;20240;-67
2022/11/12 02:53:12;;;;;;;2.00;1.73;;;20.60;43.90;;;;;;5054647;28;20213;-67
2022/11/12 02:55:38;;;;;;;15.03;2.80;;;20.60;43.90;;;;;;5052632;28;20504;-68
2022/11/12 02:58:03;;;;;;;1.60;1.47;;;20.60;44.60;;;;;;5055090;28;20679;-69
2022/11/12 03:00:29;;;;;;;1.80;1.70;;;20.60;43.80;;;;;;5050168;28;20221;-68
2022/11/12 03:03:03;;;;;;;1.80;1.70;;;20.60;43.90;;;;;;5054449;28;20224;-67
2022/11/12 03:05:31;;;;;;;2.00;1.80;;;20.60;43.80;;;;;;5050910;28;20725;-68
2022/11/12 03:07:58;;;;;;;1.97;1.70;;;20.60;43.90;;;;;;5052661;28;21207;-68
2022/11/12 03:10:26;;;;;;;1.67;1.57;;;20.60;43.80;;;;;;5057803;28;20477;-68
2022/11/12 03:12:53;;;;;;;1.77;1.67;;;20.60;43.90;;;;;;5060834;28;21039;-67
2022/11/12 03:15:19;;;;;;;1.80;1.70;;;20.60;43.80;;;;;;5056533;28;20452;-68
2022/11/12 03:17:44;;;;;;;1.80;1.70;;;20.60;43.80;;;;;;5057931;28;20601;-67
2022/11/12 03:20:11;;;;;;;1.67;1.57;;;20.60;43.80;;;;;;5056770;28;20457;-68
2022/11/12 03:22:37;;;;;;;1.90;1.67;;;20.60;43.80;;;;;;5058885;28;20220;-67
2022/11/12 03:25:04;;;;;;;1.80;1.70;;;20.60;43.80;;;;;;5056983;28;20457;-68
2022/11/12 03:27:30;;;;;;;1.77;1.67;;;20.60;43.80;;;;;;5058521;28;20476;-67
2022/11/12 03:29:56;;;;;;;2.20;2.10;;;20.60;43.80;;;;;;5056771;28;20469;-67
2022/11/12 03:32:21;;;;;;;1.67;1.57;;;20.60;43.70;;;;;;5050300;28;20227;-68
2022/11/12 03:34:47;;;;;;;1.80;1.70;;;20.60;43.80;;;;;;5056264;28;20221;-68
2022/11/12 03:37:13;;;;;;;1.70;1.60;;;20.60;43.80;;;;;;5050371;28;20221;-67
2022/11/12 03:39:38;;;;;;;1.93;1.83;;;20.60;43.70;;;;;;5057782;28;20924;-68
2022/11/12 03:42:04;;;;;;;1.67;1.57;;;20.60;43.80;;;;;;5057394;28;20224;-68
2022/11/12 03:44:30;;;;;;;1.70;1.60;;;20.50;43.70;;;;;;5055530;28;20209;-68
2022/11/12 03:46:55;;;;;;;1.90;1.80;;;20.60;43.70;;;;;;5055627;28;20229;-67
2022/11/12 03:49:21;;;;;;;1.90;1.80;;;20.50;43.70;;;;;;5056170;28;20305;-68
2022/11/12 03:51:46;;;;;;;1.67;1.57;;;20.50;43.70;;;;;;5058256;28;20232;-68
2022/11/12 03:54:12;;;;;;;2.20;2.00;;;20.60;43.70;;;;;;5061705;28;20263;-68
2022/11/12 03:56:38;;;;;;;1.70;1.60;;;20.60;43.70;;;;;;5057369;28;20814;-67
2022/11/12 03:59:04;;;;;;;1.87;1.77;;;20.60;43.80;;;;;;5056620;28;20232;-68
2022/11/12 04:01:30;;;;;;;1.83;1.73;;;20.60;44.50;;;;;;5053635;28;20217;-68
2022/11/12 04:03:56;;;;;;;2.03;1.93;;;20.60;43.70;;;;;;5059807;28;20512;-68
2022/11/12 04:09:06;;;;;;;1.73;1.63;;;20.50;43.70;;;;;;5058044;28;20695;-67
2022/11/12 04:11:31;;;;;;;1.90;1.80;;;20.50;43.70;;;;;;5057991;28;20434;-68
2022/11/12 04:13:57;;;;;;;1.80;1.70;;;20.50;43.70;;;;;;5056240;28;20237;-68
2022/11/12 04:22:01;;;;;;;2.30;2.20;;;20.50;43.60;;;;;;5055428;28;20476;-68
2022/11/12 04:27:28;;;;;;;1.70;1.60;;;20.50;43.70;;;;;;5054959;28;20566;-67
2022/11/12 04:32:58;;;;;;;1.83;1.70;;;20.50;43.60;;;;;;5051593;28;20821;-68
2022/11/12 04:35:25;;;;;;;1.87;1.77;;;20.50;43.60;;;;;;5054655;28;20544;-68
2022/11/12 04:37:50;;;;;;;1.97;1.80;;;20.50;43.60;;;;;;5053479;28;20458;-68
2022/11/12 04:46:09;;;;;;;2.63;2.43;;;20.50;43.60;;;;;;4965580;28;20510;-68
2022/11/12 04:48:34;;;;;;;2.00;1.90;;;20.50;43.60;;;;;;5055870;28;20487;-69
2022/11/12 04:51:02;;;;;;;1.77;1.67;;;20.50;43.60;;;;;;5052782;28;20582;-68
2022/11/12 04:53:29;;;;;;;1.60;1.50;;;20.50;43.60;;;;;;5055983;28;20431;-68
2022/11/12 04:55:57;;;;;;;2.20;2.10;;;20.50;43.60;;;;;;5057819;28;20455;-68
2022/11/12 04:58:23;;;;;;;1.60;1.50;;;20.50;43.50;;;;;;5054569;28;20442;-68
2022/11/12 05:00:49;;;;;;;1.70;1.60;;;20.50;43.50;;;;;;5055386;28;20592;-68
2022/11/12 05:03:15;;;;;;;1.50;1.40;;;20.50;43.50;;;;;;5054417;28;20581;-68
2022/11/12 05:05:41;;;;;;;1.60;1.50;;;20.60;43.50;;;;;;5058110;28;20450;-68
2022/11/12 05:08:07;;;;;;;2.07;1.97;;;20.60;43.50;;;;;;5054215;28;21083;-68
2022/11/12 05:10:32;;;;;;;1.67;1.57;;;20.60;43.50;;;;;;5053449;28;20458;-68
2022/11/12 05:12:58;;;;;;;1.53;1.43;;;20.60;43.50;;;;;;5056952;28;20270;-68
2022/11/12 05:15:24;;;;;;;1.70;1.60;;;20.60;43.50;;;;;;5053743;28;20416;-68
2022/11/12 05:17:49;;;;;;;2.10;2.00;;;20.60;43.50;;;;;;5052070;28;20241;-68
2022/11/12 05:20:16;;;;;;;1.63;1.53;;;20.60;43.40;;;;;;5056331;28;20304;-67
2022/11/12 05:22:41;;;;;;;1.70;1.60;;;20.60;43.50;;;;;;5056871;28;20324;-68
2022/11/12 05:25:08;;;;;;;1.63;1.53;;;20.60;43.40;;;;;;5055766;28;20442;-68
2022/11/12 05:27:34;;;;;;;1.60;1.50;;;20.60;43.40;;;;;;5054211;28;20320;-68
2022/11/12 05:29:59;;;;;;;1.70;1.60;;;20.60;43.40;;;;;;5052956;28;20969;-67
2022/11/12 05:32:25;;;;;;;1.70;1.60;;;20.60;43.40;;;;;;5053812;28;20463;-68
2022/11/12 05:34:51;;;;;;;1.90;1.80;;;20.60;43.40;;;;;;5052461;28;20225;-68
2022/11/12 05:37:17;;;;;;;2.27;2.17;;;20.60;43.30;;;;;;5055817;28;20458;-68
2022/11/12 05:39:42;;;;;;;1.70;1.60;;;20.60;43.30;;;;;;5052432;28;20278;-68
2022/11/12 05:42:08;;;;;;;1.97;1.87;;;20.60;43.30;;;;;;5058616;28;20256;-68
2022/11/12 05:44:34;;;;;;;1.50;1.40;;;20.60;43.30;;;;;;5053743;28;20308;-68
2022/11/12 05:47:00;;;;;;;1.60;1.50;;;20.60;43.30;;;;;;5053637;28;20689;-67
2022/11/12 05:49:25;;;;;;;1.80;1.70;;;20.60;43.30;;;;;;5055167;28;20229;-67
2022/11/12 05:51:51;;;;;;;1.50;1.40;;;20.60;43.30;;;;;;5059085;28;20637;-66
2022/11/12 05:54:17;;;;;;;1.83;1.73;;;20.70;43.40;;;;;;5054868;28;20232;-67
2022/11/12 05:56:43;;;;;;;2.07;1.97;;;20.60;43.30;;;;;;5052490;28;20264;-67
2022/11/12 05:59:11;;;;;;;1.57;1.47;;;20.60;43.30;;;;;;5057982;28;20442;-68
2022/11/12 06:01:42;;;;;;;1.70;1.60;;;20.70;43.30;;;;;;5055136;28;20472;-68
2022/11/12 06:04:10;;;;;;;1.53;1.43;;;20.60;43.20;;;;;;5058746;28;20488;-68
2022/11/12 06:06:36;;;;;;;1.63;1.53;;;20.60;43.20;;;;;;5057911;28;20508;-67
2022/11/12 06:09:02;;;;;;;1.80;1.70;;;20.70;44.10;;;;;;5055119;28;20554;-67
2022/11/12 06:11:27;;;;;;;2.20;2.10;;;20.70;43.20;;;;;;5056838;28;21028;-67
2022/11/12 06:13:53;;;;;;;1.70;1.60;;;20.70;43.20;;;;;;5055205;28;20217;-67
2022/11/12 06:16:19;;;;;;;1.87;1.50;;;20.60;43.10;;;;;;5052291;28;20223;-67
2022/11/12 06:18:44;;;;;;;1.37;1.27;;;20.70;43.20;;;;;;5055109;28;20229;-67
2022/11/12 06:21:20;;;;;;;1.90;1.80;;;20.70;43.20;;;;;;5056293;28;20229;-68
2022/11/12 06:23:54;;;;;;;1.60;1.50;;;20.60;43.20;;;;;;5057425;28;20216;-67
2022/11/12 06:26:21;;;;;;;1.70;1.60;;;20.60;43.20;;;;;;5056417;28;21028;-67
2022/11/12 06:28:48;;;;;;;1.53;1.43;;;20.70;43.20;;;;;;5054588;28;20453;-68
2022/11/12 06:31:14;;;;;;;1.53;1.40;;;20.60;43.20;;;;;;5056506;28;20521;-68
2022/11/12 06:33:40;;;;;;;1.70;1.60;;;20.70;43.10;;;;;;5055788;28;20462;-67
2022/11/12 06:36:06;;;;;;;1.50;1.40;;;20.70;43.20;;;;;;5055613;28;20454;-67
2022/11/12 06:38:35;;;;;;;1.67;1.57;;;20.70;43.20;;;;;;5057968;28;20476;-67
2022/11/12 06:41:01;;;;;;;1.80;1.70;;;20.70;43.10;;;;;;5057786;28;20450;-67
2022/11/12 06:43:29;;;;;;;2.63;1.90;;;20.70;43.10;;;;;;5058017;28;20450;-67
2022/11/12 06:46:02;;;;;;;1.97;1.87;;;20.70;43.20;;;;;;5056487;28;20225;-66
2022/11/12 06:48:28;;;;;;;1.80;1.70;;;20.70;43.10;;;;;;5057862;28;20470;-67
2022/11/12 06:50:55;;;;;;;1.50;1.40;;;20.70;43.10;;;;;;5059393;28;20447;-67
2022/11/12 06:53:20;;;;;;;1.80;1.70;;;20.70;43.10;;;;;;5059393;28;20579;-67
2022/11/12 06:55:46;;;;;;;1.63;1.53;;;20.70;43.10;;;;;;5059343;28;20468;-67
2022/11/12 06:58:11;;;;;;;2.43;1.60;;;20.70;43.10;;;;;;5059950;28;20232;-67
2022/11/12 07:00:37;;;;;;;1.67;1.57;;;20.70;43.10;;;;;;5058168;28;20255;-67
2022/11/12 07:03:07;;;;;;;1.97;1.87;;;20.70;43.00;;;;;;5059933;28;20225;-67
2022/11/12 07:05:36;;;;;;;1.80;1.70;;;20.70;43.00;;;;;;5059579;28;23622;-67
2022/11/12 07:08:01;;;;;;;1.70;1.60;;;20.70;43.00;;;;;;5059445;28;20478;-67
2022/11/12 07:10:27;;;;;;;1.60;1.50;;;20.70;43.00;;;;;;5059123;28;20980;-67
2022/11/12 07:12:53;;;;;;;1.50;1.40;;;20.70;43.00;;;;;;5042050;28;20241;-67
2022/11/12 07:15:19;;;;;;;1.80;1.70;;;20.70;43.00;;;;;;5058240;28;20227;-67
2022/11/12 07:17:45;;;;;;;2.20;2.00;;;20.60;42.90;;;;;;5058208;28;20474;-67
2022/11/12 07:20:12;;;;;;;1.70;1.60;;;20.70;42.90;;;;;;5057470;28;20802;-67
2022/11/12 07:22:37;;;;;;;1.77;1.67;;;20.70;43.00;;;;;;5058553;28;20980;-67
2022/11/12 07:25:03;;;;;;;1.87;1.77;;;20.70;42.90;;;;;;5056199;28;20454;-67
2022/11/12 07:27:30;;;;;;;2.00;1.90;;;20.70;42.90;;;;;;5059532;28;20321;-67
2022/11/12 07:29:55;;;;;;;1.70;1.60;;;20.70;42.90;;;;;;5055801;28;20232;-67
2022/11/12 07:32:21;;;;;;;1.60;1.50;;;20.70;42.90;;;;;;5050455;28;20462;-68
2022/11/12 07:34:46;;;;;;;1.70;1.60;;;20.70;42.90;;;;;;5058397;28;20271;-68
2022/11/12 07:37:12;;;;;;;1.90;1.80;;;20.70;42.90;;;;;;5059983;28;20267;-68
2022/11/12 07:39:37;;;;;;;2.50;1.70;;;20.70;42.90;;;;;;5057537;28;20261;-67
2022/11/12 07:42:03;;;;;;;2.07;1.97;;;20.70;42.90;;;;;;5060640;28;20244;-67
2022/11/12 07:44:28;;;;;;;1.70;1.60;;;20.70;42.90;;;;;;5054778;28;20256;-67
2022/11/12 07:46:54;;;;;;;1.80;1.70;;;20.70;42.90;;;;;;5054389;28;20237;-68
2022/11/12 07:49:19;;;;;;;1.70;1.60;;;20.70;42.90;;;;;;5055014;28;20233;-67
2022/11/12 07:51:45;;;;;;;1.83;1.73;;;20.70;42.90;;;;;;5055151;28;20669;-69
2022/11/12 07:54:11;;;;;;;1.70;1.60;;;20.70;42.90;;;;;;5054311;28;20223;-68
2022/11/12 07:56:36;;;;;;;1.60;1.50;;;20.70;42.80;;;;;;5059222;28;20275;-67
2022/11/12 07:59:02;;;;;;;2.03;1.60;;;20.70;42.90;;;;;;5055074;28;23705;-67
2022/11/12 08:01:35;;;;;;;2.90;1.60;;;20.70;42.80;;;;;;5051246;28;20256;-67
2022/11/12 08:04:02;;;;;;;5.67;1.80;;;20.70;42.80;;;;;;5054962;28;20229;-68
2022/11/12 08:06:29;;;;;;;1.73;1.63;;;20.70;42.80;;;;;;5057050;28;20858;-67
2022/11/12 08:08:56;;;;;;;2.10;2.00;;;20.70;42.80;;;;;;5050950;28;20795;-67
2022/11/12 08:11:22;;;;;;;2.37;1.70;;;20.70;43.60;;;;;;5052582;28;20474;-67
2022/11/12 08:13:48;;;;;;;2.03;1.73;;;20.70;42.90;;;;;;5048588;28;20497;-67
2022/11/12 08:16:14;;;;;;;1.80;1.70;;;20.70;42.90;;;;;;5051118;28;20469;-67
2022/11/12 08:18:41;;;;;;;1.97;1.87;;;20.70;42.80;;;;;;5050917;28;20478;-67
2022/11/12 08:21:09;;;;;;;1.87;1.77;;;20.70;42.80;;;;;;5057882;28;20992;-67
2022/11/12 08:23:35;;;;;;;2.20;2.00;;;20.60;42.80;;;;;;5056567;28;20454;-67
2022/11/12 08:26:02;;;;;;;1.70;1.60;;;20.70;42.90;;;;;;5051896;28;20469;-68
2022/11/12 08:28:29;;;;;;;1.80;1.70;;;20.70;42.80;;;;;;5050365;28;20228;-68
2022/11/12 08:30:55;;;;;;;2.63;1.90;;;20.70;42.90;;;;;;5054647;28;20573;-68
2022/11/12 08:33:21;;;;;;;1.53;1.43;;;20.70;43.00;;;;;;5054508;28;20957;-68
2022/11/12 08:35:47;;;;;;;2.10;2.00;;;20.70;42.90;;;;;;5055963;28;20455;-68
2022/11/12 08:38:13;;;;;;;1.80;1.70;;;20.70;42.90;;;;;;5055667;28;20565;-68
2022/11/12 08:40:39;;;;;;;2.83;1.90;;;20.70;42.90;;;;;;5054495;28;20229;-68
2022/11/12 08:43:07;;;;;;;2.27;2.10;;;20.70;42.90;;;;;;5053888;28;20274;-68
2022/11/12 08:45:35;;;;;;;2.10;2.00;;;20.70;42.90;;;;;;5054751;28;20458;-67
2022/11/12 08:48:02;;;;;;;3.13;1.90;;;20.70;42.90;;;;;;5054771;28;22236;-67
2022/11/12 08:50:28;;;;;;;2.07;1.87;;;20.70;43.00;;;;;;5049741;28;20462;-68
2022/11/12 08:53:01;;;;;;;1.70;1.60;;;20.70;43.00;;;;;;5052452;28;22966;-67
2022/11/12 08:55:32;;;;;;;2.53;2.00;;;20.70;43.00;;;;;;5053920;28;20458;-67
2022/11/12 08:58:01;;;;;;;2.90;1.60;;;20.70;43.00;;;;;;5053870;28;20543;-69
2022/11/12 09:00:31;;;;;;;1.70;1.60;;;20.70;43.00;;;;;;5051527;28;20511;-68
2022/11/12 09:03:01;;;;;;;1.70;1.60;;;20.70;43.00;;;;;;5050728;28;20462;-68
2022/11/12 09:05:27;;;;;;;2.17;1.77;;;20.70;42.90;;;;;;5056651;28;21024;-68
2022/11/12 09:08:21;;;;;;;3.43;1.43;;;20.70;42.90;;;;;;5053021;28;20505;-68
2022/11/12 09:10:47;;;;;;;1.97;1.87;;;20.70;42.90;;;;;;5052519;28;21109;-69
2022/11/12 09:13:13;;;;;;;1.97;1.50;;;20.70;43.00;;;;;;5059843;28;20458;-68
2022/11/12 09:15:39;;;;;;;2.20;1.77;;;20.70;43.00;;;;;;5061666;28;20537;-70
2022/11/12 09:18:07;;;;;;;1.90;1.80;;;20.70;43.00;;;;;;5057187;28;20268;-69
2022/11/12 09:20:32;;;;;;;1.70;1.60;;;20.70;43.00;;;;;;5041781;28;20217;-70
2022/11/12 09:23:03;;;;;;;3.37;1.90;;;20.70;43.00;;;;;;5058971;28;20462;-70
2022/11/12 09:25:30;;;;;;;1.67;1.57;;;20.70;43.00;;;;;;5059537;28;20213;-70
2022/11/12 09:27:55;;;;;;;2.90;1.73;;;20.70;43.00;;;;;;5060824;28;20459;-69
2022/11/12 09:30:22;;;;;;;2.00;1.90;;;20.70;43.00;;;;;;5060313;28;20489;-67
2022/11/12 09:32:47;;;;;;;2.43;1.63;;;20.70;43.00;;;;;;5057683;28;20233;-66
2022/11/12 09:35:13;;;;;;;2.00;1.90;;;20.70;43.00;;;;;;5060122;28;20454;-67
2022/11/12 09:37:39;;;;;;;1.87;1.60;;;20.70;43.10;;;;;;5059570;28;21349;-67
2022/11/12 09:40:06;;;;;;;1.80;1.70;;;20.70;43.00;;;;;;5059678;28;20218;-67
2022/11/12 09:42:34;;;;;;;1.80;1.70;;;20.70;43.00;;;;;;5059253;28;21012;-67
2022/11/12 09:45:06;;;;;;;1.70;1.60;;;20.70;43.00;;;;;;5058740;28;20453;-67
2022/11/12 09:47:42;;;;;;;2.13;2.00;;;20.70;43.00;;;;;;5061683;28;20537;-67
2022/11/12 09:50:29;;;;;;;1.70;1.60;;;20.70;43.10;;;;;;5059110;28;20453;-67
2022/11/12 09:53:12;;;;;;;1.60;1.50;;;20.70;43.00;;;;;;5058592;28;21269;-67
2022/11/12 09:55:42;;;;;;;1.93;1.83;;;20.70;43.10;;;;;;5059934;28;21025;-63
2022/11/12 09:58:12;;;;;;;3.57;1.90;;;20.70;43.00;;;;;;5058306;28;20454;-63
2022/11/12 10:00:41;;;;;;;1.90;1.80;;;20.70;43.00;;;;;;5060010;28;20529;-63
2022/11/12 10:03:31;;;;;;;1.43;1.33;;;20.70;43.00;;;;;;5056712;28;20536;-63
2022/11/12 10:06:11;;;;;;;1.60;1.50;;;20.70;43.00;;;;;;5059732;28;20458;-63
2022/11/12 10:08:59;;;;;;;1.50;1.40;;;20.70;43.00;;;;;;5056382;28;20474;-63
2022/11/12 10:12:30;;;;;;;1.77;1.37;;;20.70;43.00;;;;;;5056488;28;20469;-63
2022/11/12 10:14:49;;;;;;;2.00;1.80;;;20.70;43.10;;;;;;5057307;28;20457;-63
2022/11/12 10:17:27;;;;;;;1.67;1.57;;;20.70;43.00;;;;;;5056588;28;20435;-63
2022/11/12 10:19:55;;;;;;;4.63;2.20;;;20.70;43.10;;;;;;5056378;28;20450;-62
2022/11/12 10:22:32;;;;;;;5.20;1.60;;;20.70;43.10;;;;;;5057113;28;20457;-63
2022/11/12 10:25:13;;;;;;;1.60;1.50;;;20.70;43.10;;;;;;5049831;28;20520;-62
2022/11/12 10:27:41;;;;;;;2.50;1.90;;;20.70;43.00;;;;;;5053774;28;21289;-63
2022/11/12 10:30:16;;;;;;;2.43;1.80;;;20.80;43.10;;;;;;5055223;28;20493;-62
2022/11/12 10:32:44;;;;;;;1.70;1.60;;;20.80;43.10;;;;;;5052441;28;20445;-62
2022/11/12 10:35:13;;;;;;;1.60;1.50;;;20.80;43.20;;;;;;5053733;28;20965;-62
2022/11/12 10:38:05;;;;;;;2.60;1.60;;;20.80;43.10;;;;;;5060905;28;20462;-63
2022/11/12 10:40:34;;;;;;;1.80;1.70;;;20.80;43.10;;;;;;5059488;28;20493;-63
2022/11/12 10:43:05;;;;;;;1.80;1.70;;;20.80;43.10;;;;;;5059546;28;20462;-62
2022/11/12 10:45:31;;;;;;;1.70;1.60;;;20.80;43.10;;;;;;5059917;28;20458;-63
2022/11/12 10:47:58;;;;;;;1.90;1.80;;;20.80;43.10;;;;;;5059371;28;20857;-63
2022/11/12 10:50:41;;;;;;;2.53;1.53;;;20.80;43.10;;;;;;5059640;28;20469;-63
2022/11/12 10:53:10;;;;;;;2.00;1.90;;;20.80;43.10;;;;;;5058990;28;20528;-62
2022/11/12 10:55:52;;;;;;;1.53;1.43;;;20.80;43.10;;;;;;5061377;28;20560;-62
2022/11/12 10:58:19;;;;;;;1.80;1.70;;;20.80;43.20;;;;;;5057251;28;20465;-63
2022/11/12 11:01:11;;;;;;;1.50;1.40;;;20.80;43.10;;;;;;5056414;28;20926;-63
2022/11/12 11:03:50;;;;;;;1.57;1.47;;;20.80;43.10;;;;;;5053762;28;21847;-62
2022/11/12 11:06:15;;;;;;;1.93;1.73;;;20.80;43.10;;;;;;5019595;28;20548;-63
2022/11/12 11:08:42;;;;;;;1.80;1.70;;;20.80;43.20;;;;;;5052816;28;20471;-62
2022/11/12 11:11:50;;;;;;;1.97;1.77;;;20.80;43.10;;;;;;5058757;28;20218;-63
2022/11/12 11:14:22;;;;;;;1.77;1.67;;;20.80;43.20;;;;;;5016266;28;20469;-63
2022/11/12 11:16:49;;;;;;;1.80;1.70;;;20.80;43.10;;;;;;5054917;28;20437;-63
2022/11/12 11:19:14;;;;;;;1.67;1.57;;;20.80;43.20;;;;;;5053606;28;20477;-63
2022/11/12 11:22:04;;;;;;;1.70;1.60;;;20.80;43.20;;;;;;5057237;28;20450;-63
2022/11/12 11:24:55;;;;;;;1.60;1.50;;;20.80;43.10;;;;;;5017780;28;20280;-63
2022/11/12 11:27:50;;;;;;;1.70;1.60;;;20.80;43.20;;;;;;5049103;28;21220;-63
2022/11/12 11:30:20;;;;;;;1.50;1.40;;;20.80;43.20;;;;;;5056096;28;20454;-63
2022/11/12 11:33:01;;;;;;;1.60;1.50;;;20.80;43.20;;;;;;5055492;28;20618;-61
2022/11/12 11:35:48;;;;;;;1.73;1.63;;;20.80;43.20;;;;;;5057053;28;20995;-64
2022/11/12 11:38:21;;;;;;;1.43;1.30;;;20.80;43.20;;;;;;5056108;28;20465;-64
2022/11/12 11:41:10;;;;;;;2.23;1.60;;;20.80;43.10;;;;;;5055677;28;20462;-62
2022/11/12 11:44:05;;;;;;;1.90;1.80;;;20.80;43.20;;;;;;5045577;28;20443;-63
2022/11/12 11:46:39;;;;;;;1.70;1.60;;;20.80;43.20;;;;;;4981194;28;20552;-62
2022/11/12 11:49:18;;;;;;;1.60;1.50;;;20.80;43.20;;;;;;5056373;28;21135;-62
2022/11/12 11:51:58;;;;;;;2.30;2.00;;;20.80;43.20;;;;;;5055279;28;20446;-63
2022/11/12 11:54:32;;;;;;;2.33;1.57;;;20.80;43.20;;;;;;5058919;28;20478;-62
2022/11/12 11:57:02;;;;;;;1.57;1.47;;;20.80;43.20;;;;;;5055384;28;20462;-62
2022/11/12 11:59:58;;;;;;;2.07;1.50;;;20.80;43.20;;;;;;5051623;28;20474;-62
2022/11/12 12:02:57;;;;;;;2.00;1.90;;;20.80;43.20;;;;;;5053493;28;20454;-63
2022/11/12 12:05:32;;;;;;;4.07;1.63;;;20.80;43.20;;;;;;5051838;28;20489;-63
2022/11/12 12:08:07;;;;;;;2.80;1.40;;;20.80;43.30;;;;;;5052286;28;20496;-62
2022/11/12 12:10:47;;;;;;;1.40;1.30;;;20.80;43.20;;;;;;5048700;28;21625;-63
2022/11/12 12:13:50;;;;;;;1.70;1.60;;;20.80;43.20;;;;;;5056534;28;20535;-62
2022/11/12 12:16:35;;;;;;;1.73;1.37;;;20.80;43.30;;;;;;5053485;28;20468;-64
2022/11/12 12:19:12;;;;;;;1.70;1.60;;;20.80;43.20;;;;;;5048694;28;20485;-63
2022/11/12 12:21:43;;;;;;;1.60;1.50;;;20.80;43.30;;;;;;5038875;28;20546;-63
2022/11/12 12:24:18;;;;;;;1.73;1.63;;;20.80;43.30;;;;;;5052077;28;20949;-62
2022/11/12 12:27:07;;;;;;;2.00;1.80;;;20.80;43.20;;;;;;5054062;28;20478;-62
2022/11/12 12:29:42;;;;;;;1.70;1.60;;;20.80;43.20;;;;;;5051822;28;22834;-63
2022/11/12 12:32:25;;;;;;;2.60;1.60;;;20.80;43.30;;;;;;5056106;28;20947;-62
2022/11/12 12:35:06;;;;;;;1.60;1.50;;;20.80;43.20;;;;;;5032446;28;20457;-63
2022/11/12 12:37:51;;;;;;;1.60;1.50;;;20.80;43.20;;;;;;5048799;28;21218;-62
2022/11/12 12:40:51;;;;;;;3.97;1.80;;;20.80;43.20;;;;;;5048436;28;20450;-62
2022/11/12 12:43:23;;;;;;;2.03;1.93;;;20.80;43.20;;;;;;5017709;28;20469;-62
2022/11/12 12:45:49;;;;;;;2.50;1.57;;;20.80;43.30;;;;;;5051951;28;20821;-62
2022/11/12 12:48:18;;;;;;;2.27;1.87;;;20.80;43.20;;;;;;5053548;28;20462;-62
2022/11/12 12:50:45;;;;;;;1.97;1.83;;;20.80;43.20;;;;;;5057047;28;20221;-62
2022/11/12 12:53:29;;;;;;;1.73;1.63;;;20.80;43.20;;;;;;5055637;28;20455;-62
2022/11/12 12:55:57;;;;;;;2.57;1.80;;;20.80;43.20;;;;;;5049933;28;20474;-62
2022/11/12 12:58:29;;;;;;;1.67;1.57;;;20.80;43.20;;;;;;5051710;28;20496;-62
2022/11/12 13:01:27;;;;;;;1.70;1.60;;;20.80;43.20;;;;;;5049927;28;20965;-62
2022/11/12 13:04:07;;;;;;;1.60;1.50;;;20.80;43.30;;;;;;5048731;28;21020;-63
2022/11/12 13:06:35;;;;;;;1.60;1.50;;;20.80;43.20;;;;;;5051966;28;20505;-62
2022/11/12 13:09:16;;;;;;;1.77;1.50;;;20.80;43.20;;;;;;5054397;28;20500;-63
2022/11/12 13:14:35;;;;;;;1.80;1.70;;;20.80;43.20;;;;;;5056775;28;20512;-62
2022/11/12 13:17:14;;;;;;;1.87;1.60;;;20.80;43.20;;;;;;5053353;28;20457;-62
2022/11/12 13:19:57;;;;;;;1.70;1.60;;;20.80;43.30;;;;;;5054558;28;20486;-62
2022/11/12 13:22:23;;;;;;;3.73;1.50;;;20.80;43.20;;;;;;5056503;28;20677;-63
2022/11/12 13:25:07;;;;;;;1.70;1.60;;;20.80;43.30;;;;;;5055231;28;21240;-63